White Water, California
Current Conditions -  °F | °C
As of 1:53 AM on Tuesday 21 Oct 2014 (Local Time) from KPSP Reporting Station
Clear Clear  
Wind Chill: 75°   Ceiling: Unl
Heat Index: 75°   Visibility: 10mi
Dew Point: 55°   Wind: 0mph
Humidity: 50%   Direction: NA
Pressure: 29.82"   Gusts: NA
Location:  33.9276°N, 116.6932°W
Report Text: KPSP 210853Z AUTO 00000KT 10SM CLR 24/13 A2982 RMK AO2 SLP093 T02390128 58003 TSNO
Loading
Personal Weather Stations






























Interactive Weather Map
Tropical Storm Tracking
New forecast layout! Learn more

10-Day Weather Forecast

Advertisements
Track Severe Weather on mobile